KGCN/GCN METAR and TAF weather

Enter ICAO airport designator
Station Type Date Time Source
KGCN METAR 2020/03/31 13:54 UTC NOAA

KGCN 311354Z AUTO 00000KT 10SM CLR M04/M07 A3024 RMK AO2 SLP230 T10441067


Station Type Date Time Source
KGCN Decoded METAR 2020/03/31 13:54 UTC NOAA

GRAND CANYON NATL PARK AIRPORT , AZ, United States (KGCN) 35-57N 112-09W 2016M
Mar 31, 2020 - 09:54 AM EDT / 2020.03.31 1354 UTC
Wind: Calm:0
Visibility: 10 mile(s):0
Sky conditions: clear
Temperature: 24.1 F (-4.4 C)
Dew Point: 19.9 F (-6.7 C)
Relative Humidity: 83%
Pressure (altimeter): 30.24 in. Hg (1024 hPa)
ob: KGCN 311354Z AUTO 00000KT 10SM CLR M04/M07 A3024 RMK AO2 SLP230 T10441067
cycle: 14

Station Type Date Time Source
KGCN TAF 2020/03/31 12:27 UTC NOAA

TAF KGCN 311124Z 3112/0112 VRB05KT P6SM FEW250
FM311800 23008KT P6SM BKN250
FM010130 VRB04KT P6SM SCT250

Example: see airport list